Weather at Adana 112 Heliport

Public forecast

Using degrees Celsius for public forecast. Weather courtesy of forecast.io.

Closest aviation weather report (METAR) to Adana 112 Heliport

Closest report is Adana Şakirpaşa Airport, 3.3 nm (6.2 km) WSW.

2024/05/22 10:50 (retrieved 13 minutes ago)

LTAF 221050Z 22009KT 9999 SCT030 BKN100 30/21 Q1010 NOSIG

Closest aviation forecast (TAF) to Adana 112 Heliport

Closest forecast is Adana Şakirpaşa Airport, 3.3 nm (6.2 km) WSW.

2024/05/22 06:00 (retrieved 5 hours ago)

TAF LTAF 220440Z 2206/2306 VRB02KT 9999 SCT035 BECMG 2206/2208 CAVOK BECMG 2211/2213 21012KT BECMG 2216/2218 VRB02KT SCT035 TEMPO 2220/2224 BKN030